Time;durP1;ratioP1;P1;durP2;ratioP2;P2;SDS_P1;SDS_P2;PMS_P1;PMS_P2;Temp;Humidity;BMP_temperature;BMP_pressure;BME280_temperature;BME280_humidity;BME280_pressure;Samples;Min_cycle;Max_cycle;Signal;HPM_P1;HPM_P2
2023/04/02 00:01:03;;;;;;;8.70;1.83;;;;;;;11.73;54.66;100157.63;5076064;28;20379;-77
2023/04/02 00:04:04;;;;;;;8.23;1.73;;;;;;;11.81;54.64;100155.66;5077810;28;20406;-78
2023/04/02 00:06:32;;;;;;;10.10;2.00;;;;;;;11.82;54.46;100157.28;5067642;28;20466;-78
2023/04/02 00:09:16;;;;;;;9.57;2.03;;;;;;;11.84;54.29;100157.09;5074812;28;20509;-78
2023/04/02 00:11:47;;;;;;;7.63;1.80;;;;;;;11.78;54.45;100163.19;5074785;28;20836;-78
2023/04/02 00:14:16;;;;;;;10.30;2.00;;;;;;;11.84;54.38;100163.22;5056711;28;20371;-78
2023/04/02 00:16:41;;;;;;;7.33;1.90;;;;;;;11.78;54.28;100169.28;5074190;28;20421;-78
2023/04/02 00:19:14;;;;;;;9.40;2.20;;;;;;;11.77;54.03;100167.63;5057780;28;20375;-77
2023/04/02 00:21:42;;;;;;;7.47;2.25;;;;;;;11.73;54.35;100168.22;5075342;28;20430;-77
2023/04/02 00:24:15;;;;;;;9.13;2.08;;;;;;;11.63;54.42;100165.88;5073946;28;20413;-78
2023/04/02 00:26:46;;;;;;;10.07;2.67;;;;;;;11.72;54.26;100174.53;5074069;28;20379;-78
2023/04/02 00:29:14;;;;;;;8.00;2.13;;;;;;;11.63;53.96;100161.41;5074773;28;20370;-78
2023/04/02 00:31:51;;;;;;;8.10;2.07;;;;;;;11.56;54.12;100165.00;5092896;28;20393;-78
2023/04/02 00:34:25;;;;;;;8.98;1.95;;;;;;;11.43;54.37;100166.53;5095480;28;20373;-78
2023/04/02 00:36:52;;;;;;;8.48;1.90;;;;;;;11.46;54.29;100157.38;5084938;28;20375;-78
2023/04/02 00:39:30;;;;;;;8.40;2.17;;;;;;;11.43;54.28;100153.25;5084797;28;20375;-78
2023/04/02 00:42:03;;;;;;;8.25;2.05;;;;;;;11.42;54.13;100158.75;5084076;28;20371;-78
2023/04/02 00:44:31;;;;;;;8.70;2.20;;;;;;;11.35;54.33;100158.69;5078506;28;20422;-78
2023/04/02 00:47:06;;;;;;;10.60;2.13;;;;;;;11.35;54.22;100149.91;5075749;28;20431;-78
2023/04/02 00:49:37;;;;;;;6.93;1.73;;;;;;;11.39;54.05;100161.78;5075893;28;20851;-78
2023/04/02 00:52:13;;;;;;;11.65;2.33;;;;;;;11.40;53.88;100152.81;5058770;28;20383;-78
2023/04/02 00:54:47;;;;;;;6.57;2.10;;;;;;;11.39;53.88;100159.94;5077490;28;20379;-79
2023/04/02 00:57:24;;;;;;;7.33;2.00;;;;;;;11.25;53.86;100156.34;5077051;28;20878;-78
2023/04/02 01:00:02;;;;;;;8.77;1.90;;;;;;;11.38;53.78;100165.44;5076712;28;20391;-78
2023/04/02 01:02:34;;;;;;;5.05;1.42;;;;;;;11.39;53.77;100167.09;5058980;28;20382;-78
2023/04/02 01:05:13;;;;;;;10.38;1.95;;;;;;;11.24;53.83;100160.00;5076690;28;20874;-78
2023/04/02 01:07:39;;;;;;;7.53;1.80;;;;;;;11.34;53.71;100165.00;5075951;28;20414;-78
2023/04/02 01:10:24;;;;;;;10.13;2.03;;;;;;;11.29;53.86;100165.56;5058560;28;20394;-78
2023/04/02 01:12:57;;;;;;;9.32;2.17;;;;;;;11.33;53.49;100165.19;5072578;28;20393;-78
2023/04/02 01:15:43;;;;;;;7.85;1.70;;;;;;;11.29;53.63;100164.75;5072983;28;20951;-77
2023/04/02 01:18:30;;;;;;;7.15;1.90;;;;;;;11.32;53.51;100164.34;5073130;28;20731;-78
2023/04/02 01:21:24;;;;;;;8.53;2.43;;;;;;;11.32;53.63;100163.53;5073743;28;20855;-78
2023/04/02 01:23:58;;;;;;;9.13;2.33;;;;;;;11.32;53.39;100166.19;5054715;28;20551;-77
2023/04/02 01:26:39;;;;;;;8.55;2.40;;;;;;;11.28;53.48;100171.88;5054810;28;20379;-77
2023/04/02 01:29:12;;;;;;;9.10;2.40;;;;;;;11.24;53.47;100173.25;5072408;28;20441;-77
2023/04/02 01:31:39;;;;;;;10.93;2.38;;;;;;;11.14;53.66;100169.28;5072518;28;20374;-78
2023/04/02 01:34:08;;;;;;;10.27;2.00;;;;;;;11.03;53.75;100162.63;5072753;28;20456;-78
2023/04/02 01:37:13;;;;;;;9.57;2.30;;;;;;;10.97;53.90;100172.16;5072674;28;20922;-78
2023/04/02 01:39:47;;;;;;;9.52;2.22;;;;;;;10.96;54.19;100172.31;5066087;28;20451;-77
2023/04/02 01:42:51;;;;;;;9.38;2.17;;;;;;;10.95;54.10;100174.16;5054612;28;20474;-77
2023/04/02 01:45:20;;;;;;;8.20;2.10;;;;;;;10.92;54.23;100179.84;5071867;28;20407;-77
2023/04/02 01:47:47;;;;;;;10.02;2.28;;;;;;;10.85;54.09;100179.75;5055796;28;20376;-78
2023/04/02 01:50:18;;;;;;;8.98;1.85;;;;;;;10.81;53.94;100175.81;5074487;28;20385;-78
2023/04/02 01:52:47;;;;;;;8.70;1.80;;;;;;;10.77;54.00;100190.47;5072600;28;20462;-78
2023/04/02 01:55:16;;;;;;;9.93;2.08;;;;;;;10.84;54.19;100194.03;5072614;28;20413;-77
2023/04/02 01:57:46;;;;;;;11.25;2.35;;;;;;;10.90;53.77;100193.28;5054170;28;20371;-78
2023/04/02 02:00:14;;;;;;;9.38;2.00;;;;;;;10.95;53.62;100194.53;5055136;28;20379;-78
2023/04/02 02:02:42;;;;;;;11.23;2.08;;;;;;;11.08;53.51;100203.50;5072768;28;20496;-77
2023/04/02 02:05:17;;;;;;;10.02;1.98;;;;;;;11.08;53.75;100205.31;5073504;28;20430;-78
2023/04/02 02:07:43;;;;;;;15.55;7.90;;;;;;;11.04;53.60;100199.56;5074211;28;20371;-78
2023/04/02 02:10:20;;;;;;;8.20;2.30;;;;;;;11.09;53.36;100206.94;5072979;28;20371;-78
2023/04/02 02:12:48;;;;;;;13.13;5.90;;;;;;;11.08;53.30;100206.13;5071294;28;20732;-78
2023/04/02 02:15:22;;;;;;;8.45;2.25;;;;;;;11.18;53.07;100200.56;5072967;28;20513;-78
2023/04/02 02:17:49;;;;;;;8.00;2.00;;;;;;;11.17;53.23;100204.22;5074111;28;20828;-78
2023/04/02 02:20:15;;;;;;;10.87;2.53;;;;;;;11.13;53.11;100197.63;5056264;28;20474;-78
2023/04/02 02:22:47;;;;;;;7.95;2.47;;;;;;;11.12;53.17;100197.81;5073310;28;20383;-77
2023/04/02 02:25:26;;;;;;;8.65;2.88;;;;;;;11.14;53.18;100201.91;5055943;28;20896;-78
2023/04/02 02:28:21;;;;;;;11.50;3.25;;;;;;;11.25;53.05;100206.75;5073498;28;20409;-78
2023/04/02 02:30:55;;;;;;;8.60;2.53;;;;;;;11.16;53.05;100202.53;5080402;28;20383;-78
2023/04/02 02:33:46;;;;;;;9.02;2.92;;;;;;;11.19;53.20;100204.03;5091517;28;20854;-78
2023/04/02 02:36:44;;;;;;;7.15;2.17;;;;;;;11.21;52.78;100196.69;5084269;28;20513;-78
2023/04/02 02:39:24;;;;;;;8.70;2.22;;;;;;;11.12;53.13;100205.78;5075371;28;20547;-78
2023/04/02 02:42:12;;;;;;;6.82;2.00;;;;;;;11.13;53.36;100202.09;5074266;28;20386;-78
2023/04/02 02:44:42;;;;;;;10.18;2.70;;;;;;;11.13;53.13;100204.75;5074177;28;20470;-78
2023/04/02 02:47:18;;;;;;;8.23;2.03;;;;;;;11.08;52.95;100203.50;5071649;28;20379;-78
2023/04/02 02:49:48;;;;;;;8.73;2.17;;;;;;;11.08;53.03;100207.97;5070940;28;20382;-78
2023/04/02 02:52:27;;;;;;;10.40;2.38;;;;;;;10.96;53.10;100206.81;5071645;28;20375;-77
2023/04/02 02:55:10;;;;;;;10.50;4.00;;;;;;;10.99;53.40;100206.44;5072152;28;20854;-78
2023/04/02 02:57:40;;;;;;;8.10;2.33;;;;;;;10.95;53.21;100210.44;5071562;28;20385;-78
2023/04/02 03:00:10;;;;;;;8.00;2.22;;;;;;;10.90;53.03;100206.53;5071360;28;20740;-78
2023/04/02 03:02:39;;;;;;;8.52;2.20;;;;;;;10.92;52.98;100210.84;5053678;28;20762;-78
2023/04/02 03:05:06;;;;;;;10.95;2.50;;;;;;;10.92;53.00;100203.69;5071102;28;20416;-77
2023/04/02 03:07:32;;;;;;;5.05;1.75;;;;;;;10.88;53.16;100194.47;5073109;28;20454;-77
2023/04/02 03:10:13;;;;;;;8.50;3.70;;;;;;;10.85;53.10;100200.94;5078191;28;20474;-77
2023/04/02 03:12:38;;;;;;;6.25;1.92;;;;;;;10.82;52.96;100196.03;5078137;28;20386;-77
2023/04/02 03:15:18;;;;;;;5.43;2.20;;;;;;;10.93;52.49;100200.06;5059874;28;20375;-77
2023/04/02 03:17:57;;;;;;;10.10;2.30;;;;;;;10.97;52.53;100211.13;5077963;28;20387;-77
2023/04/02 03:20:51;;;;;;;7.50;1.73;;;;;;;10.94;52.34;100203.50;5077620;28;20735;-77
2023/04/02 03:23:41;;;;;;;9.77;2.20;;;;;;;11.02;52.42;100206.91;5077564;28;20483;-77
2023/04/02 03:26:17;;;;;;;6.40;2.00;;;;;;;11.01;52.37;100204.41;5060000;28;20469;-78
2023/04/02 03:28:49;;;;;;;6.65;1.88;;;;;;;10.93;52.29;100201.84;5086613;28;20373;-77
2023/04/02 03:31:46;;;;;;;8.10;2.22;;;;;;;10.84;52.40;100204.63;5097999;28;20432;-76
2023/04/02 03:34:24;;;;;;;6.88;2.80;;;;;;;10.76;52.64;100198.59;5080293;28;20373;-78
2023/04/02 03:36:55;;;;;;;7.63;1.80;;;;;;;10.68;52.52;100197.69;5098207;28;20460;-77
2023/04/02 03:39:44;;;;;;;8.13;2.20;;;;;;;10.66;52.91;100205.00;5097777;28;20368;-77
2023/04/02 03:42:19;;;;;;;8.40;2.20;;;;;;;10.54;53.39;100200.34;5097771;28;20372;-77
2023/04/02 03:45:02;;;;;;;7.88;2.00;;;;;;;10.57;52.76;100202.59;5097939;28;20404;-78
2023/04/02 03:47:38;;;;;;;7.82;2.08;;;;;;;10.50;53.19;100206.00;5098428;28;20389;-78
2023/04/02 03:50:33;;;;;;;6.82;1.73;;;;;;;10.46;53.39;100211.81;5097746;28;20850;-78
2023/04/02 03:53:00;;;;;;;8.55;1.67;;;;;;;10.36;53.51;100204.16;5077930;28;20392;-78
2023/04/02 03:55:32;;;;;;;7.55;2.10;;;;;;;10.39;53.76;100211.75;5097543;28;20372;-79
2023/04/02 03:58:08;;;;;;;6.93;1.85;;;;;;;10.39;53.74;100210.91;5097744;28;20365;-79
2023/04/02 04:01:00;;;;;;;5.93;1.80;;;;;;;10.41;53.44;100209.75;5097770;28;20778;-78
2023/04/02 04:03:36;;;;;;;4.80;1.30;;;;;;;10.27;53.56;100194.63;5097644;28;20401;-78
2023/04/02 04:06:09;;;;;;;4.50;1.50;;;;;;;10.40;53.45;100209.91;5097149;28;20938;-77
2023/04/02 04:08:45;;;;;;;6.97;3.63;;;;;;;10.40;53.43;100207.25;5077900;28;20386;-78
2023/04/02 04:11:18;;;;;;;10.95;4.43;;;;;;;10.44;53.57;100211.19;5096921;28;20396;-77
2023/04/02 04:14:10;;;;;;;8.98;3.17;;;;;;;10.48;53.29;100215.16;5097310;28;20381;-77
2023/04/02 04:17:03;;;;;;;11.20;2.45;;;;;;;10.43;53.25;100220.97;5065174;28;20413;-77
2023/04/02 04:19:34;;;;;;;6.75;2.28;;;;;;;10.39;53.89;100224.16;5094531;28;20468;-77
2023/04/02 04:22:32;;;;;;;5.30;2.38;;;;;;;10.46;53.57;100233.88;5094027;28;20386;-77
2023/04/02 04:25:16;;;;;;;7.07;2.03;;;;;;;10.47;53.55;100232.84;5064528;28;20900;-77
2023/04/02 04:28:15;;;;;;;5.45;1.80;;;;;;;10.42;53.30;100231.75;5094740;28;20868;-78
2023/04/02 04:30:52;;;;;;;7.63;2.38;;;;;;;10.54;53.13;100235.59;5094653;28;20389;-78
2023/04/02 04:33:33;;;;;;;5.43;1.95;;;;;;;10.55;53.03;100242.53;5093791;28;20388;-77
2023/04/02 04:36:01;;;;;;;6.40;1.85;;;;;;;10.55;53.32;100250.50;5086014;28;20885;-77
2023/04/02 04:38:31;;;;;;;5.22;1.58;;;;;;;10.51;53.53;100244.75;5105394;28;20385;-77
2023/04/02 04:41:05;;;;;;;4.50;1.42;;;;;;;10.54;53.24;100248.84;5103736;28;20411;-76
2023/04/02 04:43:37;;;;;;;6.03;2.13;;;;;;;10.55;53.44;100250.50;5086815;28;20411;-77
2023/04/02 04:46:07;;;;;;;7.93;2.13;;;;;;;10.55;53.64;100247.84;5067774;28;20470;-77
2023/04/02 04:48:45;;;;;;;7.77;2.47;;;;;;;10.51;53.57;100243.91;5089845;28;20442;-77
2023/04/02 04:51:25;;;;;;;5.25;2.17;;;;;;;10.63;53.57;100250.41;5084851;28;20419;-77
2023/04/02 04:53:54;;;;;;;4.05;1.67;;;;;;;10.60;53.51;100242.00;5085468;28;20416;-80
2023/04/02 04:56:28;;;;;;;7.28;1.77;;;;;;;10.74;53.33;100240.38;5082505;28;20589;-78
2023/04/02 04:59:22;;;;;;;7.25;1.80;;;;;;;10.71;53.16;100246.84;5085748;28;20406;-76
2023/04/02 05:02:04;;;;;;;6.07;1.70;;;;;;;10.88;53.29;100252.81;5074897;28;20430;-76
2023/04/02 05:04:47;;;;;;;5.87;1.57;;;;;;;10.98;53.11;100245.38;5088658;28;20450;-77
2023/04/02 05:07:18;;;;;;;5.20;2.10;;;;;;;11.09;53.10;100252.03;5083113;28;20913;-76
2023/04/02 05:10:03;;;;;;;5.88;2.67;;;;;;;11.03;52.74;100247.50;5091064;28;20391;-76
2023/04/02 05:12:28;;;;;;;7.82;2.47;;;;;;;11.09;52.89;100252.88;5076604;28;20386;-76
2023/04/02 05:14:59;;;;;;;4.93;1.55;;;;;;;11.21;52.59;100255.06;5086534;28;20462;-77
2023/04/02 05:17:35;;;;;;;3.92;1.27;;;;;;;11.20;52.57;100256.06;5088523;28;20813;-78
2023/04/02 05:20:09;;;;;;;6.47;2.13;;;;;;;11.46;52.48;100259.03;5093223;28;20698;-78
2023/04/02 05:22:43;;;;;;;5.60;1.42;;;;;;;11.64;52.33;100273.72;5092876;28;20392;-77
2023/04/02 05:25:14;;;;;;;6.97;2.00;;;;;;;11.73;52.28;100269.94;5085144;28;20428;-78
2023/04/02 05:28:02;;;;;;;5.05;1.70;;;;;;;11.84;52.08;100272.09;5092563;28;20451;-77
2023/04/02 05:30:28;;;;;;;8.73;2.03;;;;;;;11.87;52.03;100276.22;5071751;28;20391;-77
2023/04/02 05:33:00;;;;;;;6.33;1.90;;;;;;;12.01;51.94;100283.34;5092761;28;20868;-77
2023/04/02 05:35:35;;;;;;;5.10;1.92;;;;;;;12.21;51.54;100285.34;5094684;28;20381;-78
2023/04/02 05:38:01;;;;;;;6.53;2.00;;;;;;;12.22;51.64;100281.66;5092696;28;20854;-77
2023/04/02 05:40:50;;;;;;;4.65;1.85;;;;;;;12.25;51.50;100273.31;5074285;28;20966;-77
2023/04/02 05:43:19;;;;;;;5.65;1.80;;;;;;;12.29;51.31;100279.91;5080439;28;20411;-77
2023/04/02 05:45:52;;;;;;;4.75;1.65;;;;;;;12.34;51.37;100285.47;5082546;28;20385;-78
2023/04/02 05:48:24;;;;;;;5.22;1.80;;;;;;;12.46;51.23;100292.91;5085974;28;20379;-77
2023/04/02 05:50:53;;;;;;;4.65;1.35;;;;;;;12.39;50.97;100284.91;5085122;28;20386;-77
2023/04/02 05:53:22;;;;;;;6.18;1.52;;;;;;;12.55;51.10;100281.94;5087390;28;20385;-77
2023/04/02 05:55:57;;;;;;;5.13;1.52;;;;;;;12.75;50.80;100284.75;5089494;28;20840;-77
2023/04/02 05:58:40;;;;;;;4.85;1.50;;;;;;;12.89;50.53;100298.13;5078874;28;20913;-77
2023/04/02 06:01:24;;;;;;;4.90;1.60;;;;;;;12.93;50.67;100299.38;5088721;28;20869;-77
2023/04/02 06:04:15;;;;;;;6.43;1.77;;;;;;;13.06;50.58;100298.63;5090135;28;20407;-77
2023/04/02 06:07:05;;;;;;;5.60;2.15;;;;;;;13.28;50.77;100292.19;5088932;28;20869;-77
2023/04/02 06:09:54;;;;;;;6.25;1.90;;;;;;;13.39;50.28;100298.81;5090891;28;20373;-77
2023/04/02 06:12:25;;;;;;;5.45;1.67;;;;;;;13.33;49.74;100303.09;5073743;28;20390;-78
2023/04/02 06:14:51;;;;;;;3.20;1.70;;;;;;;13.52;49.55;100301.53;5087535;28;20914;-77
2023/04/02 06:17:18;;;;;;;5.72;2.25;;;;;;;13.81;49.74;100301.41;5091466;28;20412;-77
2023/04/02 06:19:46;;;;;;;4.80;1.30;;;;;;;13.63;48.77;100301.97;5074243;28;20462;-77
2023/04/02 06:22:18;;;;;;;4.53;1.40;;;;;;;13.80;48.83;100303.25;5073669;28;20464;-77
2023/04/02 06:24:46;;;;;;;4.72;1.38;;;;;;;13.86;48.79;100313.09;5091315;28;20933;-77
2023/04/02 06:27:18;;;;;;;3.50;1.23;;;;;;;14.02;48.53;100305.75;5076776;28;20375;-77
2023/04/02 06:29:46;;;;;;;4.75;1.50;;;;;;;14.23;48.38;100297.59;5081333;28;20450;-77
2023/04/02 06:32:12;;;;;;;4.22;1.52;;;;;;;14.30;48.84;100308.25;5097194;28;20880;-77
2023/04/02 06:34:41;;;;;;;4.03;1.50;;;;;;;14.28;48.24;100300.47;5061520;28;20465;-79
2023/04/02 06:37:28;;;;;;;3.80;1.20;;;;;;;14.47;47.87;100293.47;5083579;28;20755;-77
2023/04/02 06:39:54;;;;;;;7.03;1.70;;;;;;;14.40;47.27;100303.31;5078373;28;20365;-78
2023/04/02 06:42:33;;;;;;;6.03;2.10;;;;;;;14.48;47.28;100304.97;5089899;28;20393;-77
2023/04/02 06:44:59;;;;;;;7.97;3.70;;;;;;;14.53;48.00;100302.50;5090269;28;20407;-77
2023/04/02 06:47:38;;;;;;;4.40;1.40;;;;;;;14.54;46.77;100315.63;5088647;28;20381;-77
2023/04/02 06:50:21;;;;;;;5.68;1.73;;;;;;;14.51;46.61;100310.72;5086653;28;20381;-77
2023/04/02 06:52:50;;;;;;;6.83;1.90;;;;;;;14.71;46.71;100308.06;5089376;28;20377;-79
2023/04/02 06:55:19;;;;;;;10.57;4.00;;;;;;;14.89;46.98;100310.09;5074772;28;20394;-78
2023/04/02 06:57:45;;;;;;;5.25;1.20;;;;;;;14.91;46.10;100312.56;5081772;28;20472;-77
2023/04/02 07:00:41;;;;;;;5.53;1.58;;;;;;;14.69;45.88;100307.47;5075032;28;20739;-77
2023/04/02 07:03:24;;;;;;;5.43;1.70;;;;;;;14.69;45.83;100310.13;5085859;28;20442;-78
2023/04/02 07:05:50;;;;;;;7.35;1.70;;;;;;;15.02;46.05;100316.44;5089575;28;20381;-77
2023/04/02 07:08:15;;;;;;;3.53;1.30;;;;;;;15.13;45.59;100310.44;5086888;28;20385;-78
2023/04/02 07:10:41;;;;;;;4.20;1.60;;;;;;;15.35;45.73;100315.50;5071962;28;20403;-77
2023/04/02 07:13:30;;;;;;;8.00;2.30;;;;;;;15.54;45.24;100303.94;5070180;28;20862;-77
2023/04/02 07:15:56;;;;;;;6.40;1.40;;;;;;;15.47;45.17;100319.16;5084140;28;20421;-78
2023/04/02 07:18:32;;;;;;;5.03;1.40;;;;;;;15.56;45.67;100315.22;5081429;28;20382;-79
2023/04/02 07:20:58;;;;;;;5.43;1.52;;;;;;;15.57;44.69;100310.69;5077975;28;20415;-77
2023/04/02 07:23:24;;;;;;;5.00;1.50;;;;;;;15.67;44.48;100306.53;5070492;28;20386;-77
2023/04/02 07:25:52;;;;;;;4.85;1.42;;;;;;;15.77;44.21;100305.28;5071442;28;20391;-77
2023/04/02 07:28:18;;;;;;;5.95;1.80;;;;;;;15.83;44.42;100301.75;5088946;28;20373;-78
2023/04/02 07:30:45;;;;;;;5.43;1.40;;;;;;;15.92;43.82;100323.69;5083922;28;20385;-78
2023/04/02 07:33:17;;;;;;;7.60;2.30;;;;;;;16.12;44.62;100319.03;5073839;28;20451;-77
2023/04/02 07:35:43;;;;;;;11.35;2.10;;;;;;;16.05;43.46;100329.78;5077461;28;20794;-79
2023/04/02 07:38:09;;;;;;;5.40;1.45;;;;;;;16.19;43.08;100333.19;5082265;28;20492;-77
2023/04/02 07:40:35;;;;;;;3.70;1.30;;;;;;;16.24;42.21;100333.38;5083348;28;20869;-78
2023/04/02 07:43:02;;;;;;;5.32;1.40;;;;;;;16.23;42.20;100326.38;5089768;28;20413;-78
2023/04/02 07:45:27;;;;;;;4.72;1.40;;;;;;;16.28;42.16;100320.38;5073277;28;20462;-77
2023/04/02 07:47:53;;;;;;;6.65;1.50;;;;;;;16.11;42.39;100324.59;5089843;28;20377;-80
2023/04/02 07:50:19;;;;;;;5.82;1.50;;;;;;;16.24;42.91;100325.34;5066082;28;20379;-79
2023/04/02 07:52:45;;;;;;;5.13;1.52;;;;;;;16.52;42.77;100326.75;5080982;28;20385;-78
2023/04/02 07:55:12;;;;;;;3.53;1.10;;;;;;;16.46;42.03;100326.81;5086258;28;20752;-77
2023/04/02 07:57:48;;;;;;;6.07;1.50;;;;;;;16.38;42.53;100328.72;5091237;28;20472;-80
2023/04/02 08:00:14;;;;;;;6.88;1.63;;;;;;;16.39;42.59;100319.66;5079489;28;20377;-79
2023/04/02 08:02:40;;;;;;;5.05;1.48;;;;;;;16.46;42.98;100333.00;5081569;28;20420;-79
2023/04/02 08:05:06;;;;;;;7.73;2.23;;;;;;;16.69;42.85;100320.84;5080192;28;20423;-77
2023/04/02 08:07:32;;;;;;;25.30;6.28;;;;;;;16.74;41.97;100315.66;5078933;28;20792;-77
2023/04/02 08:09:58;;;;;;;12.50;5.30;;;;;;;16.67;41.99;100322.94;5085199;28;20374;-79
2023/04/02 08:12:23;;;;;;;11.27;3.47;;;;;;;16.78;41.91;100323.03;5089588;28;20393;-77
2023/04/02 08:14:49;;;;;;;11.20;2.00;;;;;;;16.85;41.24;100319.50;5080424;28;20375;-77
2023/04/02 08:17:15;;;;;;;2.97;1.13;;;;;;;16.73;41.13;100324.75;5076592;28;20421;-78
2023/04/02 08:19:41;;;;;;;3.77;1.20;;;;;;;16.85;41.31;100325.66;5086891;28;20444;-79
2023/04/02 08:22:06;;;;;;;8.83;1.97;;;;;;;17.00;41.27;100319.97;5104221;28;20392;-77
2023/04/02 08:24:32;;;;;;;10.13;1.90;;;;;;;16.84;41.05;100317.88;5097389;28;20411;-79
2023/04/02 08:26:57;;;;;;;4.77;2.00;;;;;;;17.00;41.27;100326.16;5073986;28;20383;-77
2023/04/02 08:29:23;;;;;;;5.53;1.35;;;;;;;16.96;40.84;100311.56;5073892;28;20859;-78
2023/04/02 08:31:48;;;;;;;4.80;1.43;;;;;;;17.09;40.91;100331.22;5070033;28;20403;-78
2023/04/02 08:34:14;;;;;;;13.38;2.33;;;;;;;16.76;40.49;100305.56;5090651;28;20375;-79
2023/04/02 08:36:43;;;;;;;9.15;1.83;;;;;;;16.89;40.82;100324.22;5071500;28;20377;-78
2023/04/02 08:39:12;;;;;;;3.72;1.30;;;;;;;17.31;40.96;100328.91;5092376;28;20413;-76
2023/04/02 08:41:52;;;;;;;9.85;1.90;;;;;;;17.15;39.97;100333.00;5092134;28;20380;-76
2023/04/02 08:44:36;;;;;;;5.22;1.50;;;;;;;17.44;40.73;100327.94;5091742;28;20470;-77
2023/04/02 08:47:07;;;;;;;8.57;1.75;;;;;;;17.46;40.27;100326.66;5090443;28;20814;-78
2023/04/02 08:49:47;;;;;;;6.40;1.40;;;;;;;17.53;39.49;100334.63;5088965;28;20373;-77
2023/04/02 08:52:35;;;;;;;4.85;1.40;;;;;;;17.57;40.42;100330.44;5090693;28;20443;-77
2023/04/02 08:55:03;;;;;;;6.17;1.53;;;;;;;17.72;40.14;100330.88;5089096;28;20401;-77
2023/04/02 08:58:00;;;;;;;5.47;1.35;;;;;;;17.78;39.57;100327.28;5087007;28;20739;-77
2023/04/02 09:00:38;;;;;;;5.77;1.53;;;;;;;17.75;39.68;100327.75;5061783;28;20387;-77
2023/04/02 09:03:34;;;;;;;9.90;2.33;;;;;;;18.05;39.85;100321.56;5080687;28;20409;-77
2023/04/02 09:06:02;;;;;;;7.65;1.70;;;;;;;18.07;39.40;100315.97;5090534;28;20397;-77
2023/04/02 09:08:31;;;;;;;3.30;1.03;;;;;;;17.47;38.21;100322.94;5092677;28;21346;-77
2023/04/02 09:11:07;;;;;;;5.55;1.17;;;;;;;17.85;38.63;100316.50;5089088;28;20380;-78
2023/04/02 09:13:38;;;;;;;8.60;1.60;;;;;;;17.99;39.22;100302.88;5091122;28;20381;-77
2023/04/02 09:16:12;;;;;;;5.73;1.10;;;;;;;18.13;38.57;100317.72;5073156;28;20778;-78
2023/04/02 09:18:40;;;;;;;7.67;1.50;;;;;;;17.88;38.09;100317.88;5085984;28;21250;-77
2023/04/02 09:21:34;;;;;;;7.75;1.40;;;;;;;17.80;38.06;100318.19;5090065;28;20416;-79
2023/04/02 09:24:00;;;;;;;2.53;1.05;;;;;;;18.00;37.88;100315.25;5078727;28;20405;-78
2023/04/02 09:26:31;;;;;;;2.37;0.90;;;;;;;18.14;37.66;100304.09;5092705;28;20750;-77
2023/04/02 09:29:28;;;;;;;4.87;1.23;;;;;;;18.29;37.85;100311.72;5072610;28;20382;-78
2023/04/02 09:32:11;;;;;;;3.43;0.90;;;;;;;18.12;35.77;100318.78;5091551;28;20385;-78
2023/04/02 09:34:37;;;;;;;9.25;1.35;;;;;;;17.96;33.90;100301.50;5093002;28;20759;-79
2023/04/02 09:37:16;;;;;;;2.17;0.60;;;;;;;17.78;34.18;100300.47;5092476;28;20558;-79
2023/04/02 09:39:42;;;;;;;3.08;0.90;;;;;;;17.99;34.60;100292.16;5091068;28;20396;-77
2023/04/02 09:42:37;;;;;;;3.42;0.70;;;;;;;17.93;34.05;100309.97;5089415;28;20830;-78
2023/04/02 09:45:22;;;;;;;4.43;0.85;;;;;;;17.96;33.72;100296.13;5028358;28;20493;-78
2023/04/02 09:47:50;;;;;;;7.78;1.20;;;;;;;17.82;34.75;100302.69;5030701;28;20580;-77
2023/04/02 09:50:28;;;;;;;2.47;0.68;;;;;;;18.02;34.93;100289.03;5032238;28;20890;-79
2023/04/02 09:52:54;;;;;;;8.18;1.20;;;;;;;18.19;33.97;100295.38;5014461;28;20393;-78
2023/04/02 09:55:25;;;;;;;7.32;1.17;;;;;;;18.20;33.97;100299.66;5031014;28;20895;-78
2023/04/02 09:58:07;;;;;;;5.13;0.93;;;;;;;17.87;34.60;100303.69;5030879;28;20486;-78
2023/04/02 10:00:33;;;;;;;3.13;0.70;;;;;;;17.95;34.62;100307.88;5030202;28;20417;-79
2023/04/02 10:03:23;;;;;;;5.95;1.10;;;;;;;18.05;33.62;100292.06;5014191;28;20387;-77
2023/04/02 10:06:05;;;;;;;3.25;0.70;;;;;;;18.02;33.81;100305.94;5031544;28;20480;-78
2023/04/02 10:08:31;;;;;;;2.53;0.70;;;;;;;18.23;34.12;100312.63;5031435;28;20404;-78
2023/04/02 10:11:00;;;;;;;4.20;0.90;;;;;;;18.36;33.99;100300.06;5030854;28;20391;-78
2023/04/02 10:13:40;;;;;;;5.65;1.08;;;;;;;18.58;32.64;100311.84;5023949;28;20390;-77
2023/04/02 10:16:31;;;;;;;4.13;0.90;;;;;;;18.44;31.91;100300.53;5053355;28;20520;-78
2023/04/02 10:19:00;;;;;;;1.50;0.68;;;;;;;18.75;32.54;100298.56;5071491;28;20387;-77
2023/04/02 10:21:30;;;;;;;5.90;0.88;;;;;;;18.89;32.22;100301.84;5072058;28;20917;-77
2023/04/02 10:23:58;;;;;;;12.60;1.90;;;;;;;18.73;33.40;100301.47;5054864;28;20403;-78
2023/04/02 10:26:53;;;;;;;5.07;0.83;;;;;;;18.47;34.10;100296.56;5090783;28;20798;-77
2023/04/02 10:29:28;;;;;;;2.92;0.63;;;;;;;18.32;32.28;100303.19;5092794;28;20472;-78
2023/04/02 10:32:00;;;;;;;2.10;0.80;;;;;;;18.48;33.52;100300.88;5091890;28;20388;-77
2023/04/02 10:34:35;;;;;;;3.75;0.90;;;;;;;18.73;32.53;100306.03;5090633;28;20387;-78
2023/04/02 10:37:41;;;;;;;2.05;0.65;;;;;;;18.46;33.45;100309.16;5093777;28;20439;-78
2023/04/02 10:40:25;;;;;;;1.20;0.47;;;;;;;18.45;31.97;100312.88;5095091;28;20853;-78
2023/04/02 10:43:23;;;;;;;1.20;0.60;;;;;;;18.73;32.66;100308.72;5092849;28;20373;-78
2023/04/02 10:45:48;;;;;;;1.30;0.60;;;;;;;18.78;31.62;100305.31;5079732;28;20400;-79
2023/04/02 10:48:22;;;;;;;2.40;0.73;;;;;;;19.11;32.37;100296.69;5083115;28;20916;-79
2023/04/02 10:51:05;;;;;;;3.63;0.82;;;;;;;19.13;31.65;100308.00;5063010;28;20934;-78
2023/04/02 10:53:33;;;;;;;4.03;0.80;;;;;;;19.16;31.93;100299.47;5062803;28;20871;-78
2023/04/02 10:56:04;;;;;;;3.97;1.02;;;;;;;19.01;32.02;100301.81;5092084;28;20452;-78
2023/04/02 10:58:33;;;;;;;3.13;0.90;;;;;;;19.25;32.13;100297.25;5091163;28;20539;-78
2023/04/02 11:01:12;;;;;;;2.70;0.70;;;;;;;19.39;30.76;100295.06;5076089;28;20869;-78
2023/04/02 11:03:44;;;;;;;1.80;0.60;;;;;;;19.40;31.01;100286.78;5095181;28;20572;-78
2023/04/02 11:06:25;;;;;;;3.70;0.90;;;;;;;19.30;31.41;100294.63;5094669;28;20730;-78
2023/04/02 11:08:56;;;;;;;1.55;0.70;;;;;;;19.33;31.82;100302.22;5094394;28;20481;-78
2023/04/02 11:11:43;;;;;;;2.35;0.68;;;;;;;19.40;31.55;100296.72;5093770;28;20385;-78
2023/04/02 11:14:14;;;;;;;0.85;0.50;;;;;;;19.51;31.04;100287.00;5077108;28;20861;-78
2023/04/02 11:16:41;;;;;;;2.00;0.68;;;;;;;19.66;30.62;100290.78;5094792;28;20432;-77
2023/04/02 11:19:09;;;;;;;2.22;0.80;;;;;;;19.55;31.12;100293.50;5091504;28;20389;-78
2023/04/02 11:21:34;;;;;;;2.00;0.60;;;;;;;19.33;31.88;100296.03;5080898;28;20751;-78
2023/04/02 11:24:01;;;;;;;3.50;0.70;;;;;;;19.04;32.65;100306.72;5091898;28;20401;-79
2023/04/02 11:26:37;;;;;;;1.70;0.60;;;;;;;19.22;32.79;100297.72;5091750;28;20782;-78
2023/04/02 11:29:15;;;;;;;2.17;0.68;;;;;;;19.28;32.75;100284.16;5093457;28;20439;-76
2023/04/02 11:31:42;;;;;;;3.25;0.90;;;;;;;19.60;32.33;100290.91;5096127;28;20369;-78
2023/04/02 11:34:13;;;;;;;2.67;0.80;;;;;;;19.37;31.30;100289.94;5095218;28;20925;-77
2023/04/02 11:36:53;;;;;;;2.05;0.90;;;;;;;19.48;31.96;100269.44;5096002;28;20385;-78
2023/04/02 11:39:45;;;;;;;0.90;0.50;;;;;;;19.55;31.46;100278.19;5094454;28;20400;-77
2023/04/02 11:42:16;;;;;;;2.97;0.70;;;;;;;19.23;30.78;100285.88;5077572;28;20381;-77
2023/04/02 11:44:42;;;;;;;0.90;0.60;;;;;;;19.15;30.79;100278.22;5093860;28;20423;-76
2023/04/02 11:47:15;;;;;;;2.90;0.70;;;;;;;19.39;31.13;100273.56;5092758;28;20812;-77
2023/04/02 11:50:05;;;;;;;1.75;0.70;;;;;;;19.72;31.24;100266.69;5093307;28;20384;-76
2023/04/02 11:52:35;;;;;;;3.47;0.60;;;;;;;19.75;30.34;100260.81;5093230;28;20522;-77
2023/04/02 11:55:21;;;;;;;2.20;0.70;;;;;;;19.57;30.87;100275.25;5075616;28;20857;-78
2023/04/02 11:57:59;;;;;;;2.65;0.80;;;;;;;19.36;31.59;100274.88;5093135;28;20468;-76
2023/04/02 12:00:49;;;;;;;1.65;0.50;;;;;;;19.13;32.23;100278.44;5088564;28;20883;-77